East Hope, Idaho
Current Conditions -  °F | °C
As of 11:35 PM on Wednesday 22 Oct 2014 (Local Time) from KSZT Reporting Station
Light Rain Light Rain  
Wind Chill: 48°   Ceiling: 3100
Heat Index: 48°   Visibility: 10mi
Dew Point: 48°   Wind: 3mph
Humidity: 100%   Direction: 200°SSW
Pressure: 29.8"   Gusts: NA
Location:  48.3258°N, 116.16°W
Report Text: KSZT 230635Z AUTO 20003KT 10SM -RA SCT019 OVC031 09/09 A2980 RMK AO2
Loading
Personal Weather Stations






























Interactive Weather Map
Tropical Storm Tracking
New forecast layout! Learn more

10-Day Weather Forecast

Advertisements
Track Severe Weather on mobile